Assiut International Airport


Codes: HEAT/ATZ
Name: Assiut International Airport
City: Assiut
Country: Egypt
Elevation: 772 ft.
Wikipedia:

Photos at Assiut International Airport


   Photos courtesy of SpottingLog. You can add your own sightings and photos by signing up for a free trial today.



No photos found.

Weather at Assiut International Airport


Time (UTC)DescriptionTempratureWindCloud coverageVisibilityPressureHumidity
16-Jun-2024 00:00Clear Sky32°C18 mph, N0%10000m1006hPa28%
16-Jun-2024 03:00Clear Sky31°C13 mph, N0%10000m1006hPa29%
16-Jun-2024 06:00Clear Sky33°C16 mph, N0%10000m1007hPa22%
16-Jun-2024 09:00Clear Sky41°C16 mph, N2%10000m1007hPa10%
16-Jun-2024 12:00Few Clouds43°C18 mph, N15%10000m1005hPa8%
16-Jun-2024 15:00Overcast Clouds42°C20 mph, N96%10000m1004hPa9%
16-Jun-2024 18:00Overcast Clouds38°C18 mph, N99%10000m1006hPa13%
16-Jun-2024 21:00Overcast Clouds35°C16 mph, N98%10000m1008hPa16%
17-Jun-2024 00:00Broken Clouds31°C16 mph, NW78%10000m1008hPa28%
17-Jun-2024 03:00Few Clouds28°C13 mph, NW24%10000m1009hPa36%
17-Jun-2024 06:00Few Clouds31°C18 mph, N13%10000m1010hPa29%
17-Jun-2024 09:00Clear Sky37°C18 mph, N0%10000m1009hPa18%
17-Jun-2024 12:00Clear Sky40°C18 mph, NW0%10000m1007hPa10%
17-Jun-2024 15:00Clear Sky39°C16 mph, NW0%10000m1006hPa7%
17-Jun-2024 18:00Clear Sky33°C11 mph, NW0%10000m1008hPa10%
17-Jun-2024 21:00Clear Sky31°C11 mph, N0%10000m1009hPa13%
18-Jun-2024 00:00Clear Sky28°C16 mph, N0%10000m1008hPa34%
18-Jun-2024 03:00Clear Sky25°C11 mph, N0%10000m1009hPa45%
18-Jun-2024 06:00Clear Sky28°C13 mph, N0%10000m1010hPa37%
18-Jun-2024 09:00Clear Sky35°C13 mph, NW0%10000m1009hPa18%
18-Jun-2024 12:00Clear Sky38°C16 mph, N0%10000m1007hPa12%
18-Jun-2024 15:00Clear Sky38°C18 mph, N0%10000m1006hPa12%
18-Jun-2024 18:00Clear Sky33°C11 mph, NW0%10000m1007hPa16%
18-Jun-2024 21:00Clear Sky32°C16 mph, NW0%10000m1007hPa21%
19-Jun-2024 00:00Clear Sky28°C13 mph, NW0%10000m1007hPa35%
19-Jun-2024 03:00Clear Sky26°C11 mph, NW0%10000m1007hPa45%
19-Jun-2024 06:00Clear Sky29°C13 mph, NW0%10000m1008hPa37%
19-Jun-2024 09:00Clear Sky36°C13 mph, NW0%10000m1007hPa17%
19-Jun-2024 12:00Clear Sky40°C13 mph, NW0%10000m1005hPa9%
19-Jun-2024 15:00Clear Sky40°C13 mph, NW0%10000m1004hPa9%
19-Jun-2024 18:00Clear Sky34°C11 mph, NW0%10000m1006hPa16%
19-Jun-2024 21:00Clear Sky32°C9 mph, NW0%10000m1007hPa19%
20-Jun-2024 00:00Clear Sky29°C16 mph, NW0%10000m1006hPa31%
20-Jun-2024 03:00Clear Sky26°C11 mph, NW0%10000m1007hPa45%
20-Jun-2024 06:00Clear Sky31°C13 mph, N0%10000m1008hPa36%
20-Jun-2024 09:00Clear Sky38°C13 mph, NW0%10000m1007hPa17%
20-Jun-2024 12:00Clear Sky41°C13 mph, NW0%10000m1005hPa11%
20-Jun-2024 15:00Clear Sky40°C13 mph, NW0%10000m1004hPa9%
20-Jun-2024 18:00Clear Sky35°C9 mph, NW0%10000m1006hPa13%
20-Jun-2024 21:00Clear Sky33°C7 mph, NW0%10000m1007hPa16%